Terminal Aerodrome Forecast
Issued by NWS Quad Cities IA IL

Home | Current Version | Previous Version | Text Only | Print | Product List | Glossary On
Versions: 1 2 3 4 5 6 7 8 9 10 11 12 13 14 15 16 17 18 19 20 21
000
FTUS43 KDVN 181100 AAA
TAFDBQ
TAF AMD
KDBQ 181159Z 1812/1912 02005KT 6SM BR SCT250
      TEMPO 1812/1813 5SM BR
     FM181500 06006KT P6SM SCT250
     FM182000 09007KT P6SM FEW100 SCT250
     FM190200 11008KT P6SM SCT250=

USA.gov is the U.S. government's official web portal to all federal, state and local government web resources and services.